sensor_id;sensor_type;location;lat;lon;timestamp;temperature;humidity
25688;DHT22;17407;51.120;3.702;2023-07-31T00:00:24;18.00;99.90
25688;DHT22;17407;51.120;3.702;2023-07-31T00:02:51;17.90;99.90
25688;DHT22;17407;51.120;3.702;2023-07-31T00:05:17;17.80;99.90
25688;DHT22;17407;51.120;3.702;2023-07-31T00:07:43;17.90;99.90
25688;DHT22;17407;51.120;3.702;2023-07-31T00:10:09;17.90;99.90
25688;DHT22;17407;51.120;3.702;2023-07-31T00:12:34;17.90;99.90
25688;DHT22;17407;51.120;3.702;2023-07-31T00:15:00;17.90;99.90
25688;DHT22;17407;51.120;3.702;2023-07-31T00:17:26;17.90;99.90
25688;DHT22;17407;51.120;3.702;2023-07-31T00:19:52;18.00;99.90
25688;DHT22;17407;51.120;3.702;2023-07-31T00:22:17;18.00;99.90
25688;DHT22;17407;51.120;3.702;2023-07-31T00:24:43;17.90;99.90
25688;DHT22;17407;51.120;3.702;2023-07-31T00:27:08;18.00;99.90
25688;DHT22;17407;51.120;3.702;2023-07-31T00:29:34;18.00;99.90
25688;DHT22;17407;51.120;3.702;2023-07-31T00:32:00;18.10;99.90
25688;DHT22;17407;51.120;3.702;2023-07-31T00:34:26;18.00;99.90
25688;DHT22;17407;51.120;3.702;2023-07-31T00:36:51;18.10;99.90
25688;DHT22;17407;51.120;3.702;2023-07-31T00:39:17;18.00;99.90
25688;DHT22;17407;51.120;3.702;2023-07-31T00:41:42;18.00;99.90
25688;DHT22;17407;51.120;3.702;2023-07-31T00:44:08;17.90;99.90
25688;DHT22;17407;51.120;3.702;2023-07-31T00:46:34;17.90;99.90
25688;DHT22;17407;51.120;3.702;2023-07-31T00:48:59;17.90;99.90
25688;DHT22;17407;51.120;3.702;2023-07-31T00:51:25;17.90;99.90
25688;DHT22;17407;51.120;3.702;2023-07-31T00:53:51;18.00;99.90
25688;DHT22;17407;51.120;3.702;2023-07-31T00:56:19;18.10;99.90
25688;DHT22;17407;51.120;3.702;2023-07-31T00:58:45;18.10;99.90
25688;DHT22;17407;51.120;3.702;2023-07-31T01:01:11;18.00;99.90
25688;DHT22;17407;51.120;3.702;2023-07-31T01:03:36;18.00;99.90
25688;DHT22;17407;51.120;3.702;2023-07-31T01:06:15;17.90;99.90
25688;DHT22;17407;51.120;3.702;2023-07-31T01:08:44;17.90;99.90
25688;DHT22;17407;51.120;3.702;2023-07-31T01:11:21;17.90;99.90
25688;DHT22;17407;51.120;3.702;2023-07-31T01:13:51;17.90;99.90
25688;DHT22;17407;51.120;3.702;2023-07-31T01:16:17;17.90;99.90
25688;DHT22;17407;51.120;3.702;2023-07-31T01:18:42;17.90;99.90
25688;DHT22;17407;51.120;3.702;2023-07-31T01:24:29;18.00;99.90
25688;DHT22;17407;51.120;3.702;2023-07-31T01:27:12;18.00;99.90
25688;DHT22;17407;51.120;3.702;2023-07-31T01:29:43;18.10;99.90
25688;DHT22;17407;51.120;3.702;2023-07-31T01:32:13;18.10;99.90
25688;DHT22;17407;51.120;3.702;2023-07-31T01:34:39;18.00;99.90
25688;DHT22;17407;51.120;3.702;2023-07-31T01:37:05;18.00;99.90
25688;DHT22;17407;51.120;3.702;2023-07-31T01:39:31;18.00;99.90
25688;DHT22;17407;51.120;3.702;2023-07-31T01:41:57;18.10;99.90
25688;DHT22;17407;51.120;3.702;2023-07-31T01:44:22;18.00;99.90
25688;DHT22;17407;51.120;3.702;2023-07-31T01:46:48;18.00;99.90
25688;DHT22;17407;51.120;3.702;2023-07-31T01:49:14;18.00;99.90
25688;DHT22;17407;51.120;3.702;2023-07-31T01:51:39;18.00;99.90
25688;DHT22;17407;51.120;3.702;2023-07-31T01:54:05;18.00;99.90
25688;DHT22;17407;51.120;3.702;2023-07-31T01:56:31;18.00;99.90
25688;DHT22;17407;51.120;3.702;2023-07-31T01:58:56;18.00;99.90
25688;DHT22;17407;51.120;3.702;2023-07-31T02:01:22;18.00;99.90
25688;DHT22;17407;51.120;3.702;2023-07-31T02:03:47;18.10;99.90
25688;DHT22;17407;51.120;3.702;2023-07-31T02:06:13;18.20;99.90
25688;DHT22;17407;51.120;3.702;2023-07-31T02:08:38;18.10;99.90
25688;DHT22;17407;51.120;3.702;2023-07-31T02:11:04;18.10;99.90
25688;DHT22;17407;51.120;3.702;2023-07-31T02:13:30;18.00;99.90
25688;DHT22;17407;51.120;3.702;2023-07-31T02:15:55;18.00;99.90
25688;DHT22;17407;51.120;3.702;2023-07-31T02:18:21;18.10;99.90
25688;DHT22;17407;51.120;3.702;2023-07-31T02:20:51;18.00;99.90
25688;DHT22;17407;51.120;3.702;2023-07-31T02:23:20;18.10;99.90
25688;DHT22;17407;51.120;3.702;2023-07-31T02:25:46;18.10;99.90
25688;DHT22;17407;51.120;3.702;2023-07-31T02:28:12;18.10;99.90
25688;DHT22;17407;51.120;3.702;2023-07-31T02:30:37;18.00;99.90
25688;DHT22;17407;51.120;3.702;2023-07-31T02:33:04;18.10;99.90
25688;DHT22;17407;51.120;3.702;2023-07-31T02:35:30;18.10;99.90
25688;DHT22;17407;51.120;3.702;2023-07-31T02:37:55;18.10;99.90
25688;DHT22;17407;51.120;3.702;2023-07-31T02:40:21;18.20;99.90
25688;DHT22;17407;51.120;3.702;2023-07-31T02:42:47;18.20;99.90
25688;DHT22;17407;51.120;3.702;2023-07-31T02:45:13;18.20;99.90
25688;DHT22;17407;51.120;3.702;2023-07-31T02:47:38;18.20;99.90
25688;DHT22;17407;51.120;3.702;2023-07-31T02:50:04;18.10;99.90
25688;DHT22;17407;51.120;3.702;2023-07-31T02:52:31;18.20;99.90
25688;DHT22;17407;51.120;3.702;2023-07-31T02:54:57;18.20;99.90
25688;DHT22;17407;51.120;3.702;2023-07-31T02:57:22;18.20;99.90
25688;DHT22;17407;51.120;3.702;2023-07-31T02:59:48;18.10;99.90
25688;DHT22;17407;51.120;3.702;2023-07-31T03:02:14;18.20;99.90
25688;DHT22;17407;51.120;3.702;2023-07-31T03:04:39;18.30;99.90
25688;DHT22;17407;51.120;3.702;2023-07-31T03:07:05;18.30;99.90
25688;DHT22;17407;51.120;3.702;2023-07-31T03:09:31;18.30;99.90
25688;DHT22;17407;51.120;3.702;2023-07-31T03:11:56;18.10;99.90
25688;DHT22;17407;51.120;3.702;2023-07-31T03:14:22;18.10;99.90
25688;DHT22;17407;51.120;3.702;2023-07-31T03:16:48;18.00;99.90
25688;DHT22;17407;51.120;3.702;2023-07-31T03:19:14;18.00;99.90
25688;DHT22;17407;51.120;3.702;2023-07-31T03:21:40;18.10;99.90
25688;DHT22;17407;51.120;3.702;2023-07-31T03:24:06;18.20;99.90
25688;DHT22;17407;51.120;3.702;2023-07-31T03:26:32;18.00;99.90
25688;DHT22;17407;51.120;3.702;2023-07-31T03:28:57;18.10;99.90
25688;DHT22;17407;51.120;3.702;2023-07-31T03:31:23;18.20;99.90
25688;DHT22;17407;51.120;3.702;2023-07-31T03:33:49;18.10;99.90
25688;DHT22;17407;51.120;3.702;2023-07-31T03:36:14;18.00;99.90
25688;DHT22;17407;51.120;3.702;2023-07-31T03:38:40;17.90;99.90
25688;DHT22;17407;51.120;3.702;2023-07-31T03:41:06;17.90;99.90
25688;DHT22;17407;51.120;3.702;2023-07-31T03:43:32;17.80;99.90
25688;DHT22;17407;51.120;3.702;2023-07-31T03:46:02;17.80;99.90
25688;DHT22;17407;51.120;3.702;2023-07-31T03:48:28;17.90;99.90
25688;DHT22;17407;51.120;3.702;2023-07-31T03:50:54;17.80;99.90
25688;DHT22;17407;51.120;3.702;2023-07-31T03:53:20;17.90;99.90
25688;DHT22;17407;51.120;3.702;2023-07-31T03:55:46;17.90;99.90
25688;DHT22;17407;51.120;3.702;2023-07-31T03:58:11;17.90;99.90
25688;DHT22;17407;51.120;3.702;2023-07-31T04:00:37;17.90;99.90
25688;DHT22;17407;51.120;3.702;2023-07-31T04:03:03;17.80;99.90
25688;DHT22;17407;51.120;3.702;2023-07-31T04:05:31;17.80;99.90
25688;DHT22;17407;51.120;3.702;2023-07-31T04:07:56;17.80;99.90
25688;DHT22;17407;51.120;3.702;2023-07-31T04:10:22;17.80;99.90
25688;DHT22;17407;51.120;3.702;2023-07-31T04:12:48;17.90;99.90
25688;DHT22;17407;51.120;3.702;2023-07-31T04:15:14;17.90;99.90
25688;DHT22;17407;51.120;3.702;2023-07-31T04:17:39;17.80;99.90
25688;DHT22;17407;51.120;3.702;2023-07-31T04:20:05;17.80;99.90
25688;DHT22;17407;51.120;3.702;2023-07-31T04:22:31;17.90;99.90
25688;DHT22;17407;51.120;3.702;2023-07-31T04:24:57;17.90;99.90
25688;DHT22;17407;51.120;3.702;2023-07-31T04:27:22;17.90;99.90
25688;DHT22;17407;51.120;3.702;2023-07-31T04:29:48;17.90;99.90
25688;DHT22;17407;51.120;3.702;2023-07-31T04:32:13;17.80;99.90
25688;DHT22;17407;51.120;3.702;2023-07-31T04:34:42;17.80;99.90
25688;DHT22;17407;51.120;3.702;2023-07-31T04:37:08;17.80;99.90
25688;DHT22;17407;51.120;3.702;2023-07-31T04:39:33;17.90;99.90
25688;DHT22;17407;51.120;3.702;2023-07-31T04:41:59;17.90;99.90
25688;DHT22;17407;51.120;3.702;2023-07-31T04:44:24;17.80;99.90
25688;DHT22;17407;51.120;3.702;2023-07-31T04:46:50;17.90;99.90
25688;DHT22;17407;51.120;3.702;2023-07-31T04:49:16;17.80;99.90
25688;DHT22;17407;51.120;3.702;2023-07-31T04:51:42;17.70;99.90
25688;DHT22;17407;51.120;3.702;2023-07-31T04:54:07;17.70;99.90
25688;DHT22;17407;51.120;3.702;2023-07-31T04:56:33;17.60;99.90
25688;DHT22;17407;51.120;3.702;2023-07-31T04:58:58;17.60;99.90
25688;DHT22;17407;51.120;3.702;2023-07-31T05:01:24;17.60;99.90
25688;DHT22;17407;51.120;3.702;2023-07-31T05:03:50;17.60;99.90
25688;DHT22;17407;51.120;3.702;2023-07-31T05:06:15;17.50;99.90
25688;DHT22;17407;51.120;3.702;2023-07-31T05:08:41;17.50;99.90
25688;DHT22;17407;51.120;3.702;2023-07-31T05:11:07;17.60;99.90
25688;DHT22;17407;51.120;3.702;2023-07-31T05:13:32;17.60;99.90
25688;DHT22;17407;51.120;3.702;2023-07-31T05:15:58;17.60;99.90
25688;DHT22;17407;51.120;3.702;2023-07-31T05:18:23;17.50;99.90
25688;DHT22;17407;51.120;3.702;2023-07-31T05:20:49;17.50;99.90
25688;DHT22;17407;51.120;3.702;2023-07-31T05:23:15;17.60;99.90
25688;DHT22;17407;51.120;3.702;2023-07-31T05:25:40;17.60;99.90
25688;DHT22;17407;51.120;3.702;2023-07-31T05:28:06;17.60;99.90
25688;DHT22;17407;51.120;3.702;2023-07-31T05:30:31;17.60;99.90
25688;DHT22;17407;51.120;3.702;2023-07-31T05:32:57;17.70;99.90
25688;DHT22;17407;51.120;3.702;2023-07-31T05:35:23;17.70;99.90
25688;DHT22;17407;51.120;3.702;2023-07-31T05:37:48;17.70;99.90
25688;DHT22;17407;51.120;3.702;2023-07-31T05:40:14;17.80;99.90
25688;DHT22;17407;51.120;3.702;2023-07-31T05:42:40;17.80;99.90
25688;DHT22;17407;51.120;3.702;2023-07-31T05:45:07;17.80;99.90
25688;DHT22;17407;51.120;3.702;2023-07-31T05:47:33;17.80;99.90
25688;DHT22;17407;51.120;3.702;2023-07-31T05:49:58;17.80;99.90
25688;DHT22;17407;51.120;3.702;2023-07-31T05:52:24;17.80;99.90
25688;DHT22;17407;51.120;3.702;2023-07-31T05:54:50;17.80;99.90
25688;DHT22;17407;51.120;3.702;2023-07-31T05:57:16;17.70;99.90
25688;DHT22;17407;51.120;3.702;2023-07-31T05:59:41;17.80;99.90
25688;DHT22;17407;51.120;3.702;2023-07-31T06:02:07;17.70;99.90
25688;DHT22;17407;51.120;3.702;2023-07-31T06:04:33;17.70;99.90
25688;DHT22;17407;51.120;3.702;2023-07-31T06:06:58;17.80;99.90
25688;DHT22;17407;51.120;3.702;2023-07-31T06:09:24;17.90;99.90
25688;DHT22;17407;51.120;3.702;2023-07-31T06:11:51;17.80;99.90
25688;DHT22;17407;51.120;3.702;2023-07-31T06:14:17;17.90;99.90
25688;DHT22;17407;51.120;3.702;2023-07-31T06:16:43;17.90;99.90
25688;DHT22;17407;51.120;3.702;2023-07-31T06:19:09;17.90;99.90
25688;DHT22;17407;51.120;3.702;2023-07-31T06:21:35;17.80;99.90
25688;DHT22;17407;51.120;3.702;2023-07-31T06:24:03;17.90;99.90
25688;DHT22;17407;51.120;3.702;2023-07-31T06:26:29;17.90;99.90
25688;DHT22;17407;51.120;3.702;2023-07-31T06:28:54;17.90;99.90
25688;DHT22;17407;51.120;3.702;2023-07-31T06:31:20;18.00;99.90
25688;DHT22;17407;51.120;3.702;2023-07-31T06:33:49;18.10;99.90
25688;DHT22;17407;51.120;3.702;2023-07-31T06:36:14;18.00;99.90
25688;DHT22;17407;51.120;3.702;2023-07-31T06:38:40;18.00;99.90
25688;DHT22;17407;51.120;3.702;2023-07-31T06:41:06;18.10;99.90
25688;DHT22;17407;51.120;3.702;2023-07-31T06:43:31;18.10;99.90
25688;DHT22;17407;51.120;3.702;2023-07-31T06:45:57;18.00;99.90
25688;DHT22;17407;51.120;3.702;2023-07-31T06:48:22;18.10;99.90
25688;DHT22;17407;51.120;3.702;2023-07-31T06:50:48;17.90;99.90
25688;DHT22;17407;51.120;3.702;2023-07-31T06:53:14;18.00;99.90
25688;DHT22;17407;51.120;3.702;2023-07-31T06:55:39;18.10;99.90
25688;DHT22;17407;51.120;3.702;2023-07-31T06:58:05;18.10;99.90
25688;DHT22;17407;51.120;3.702;2023-07-31T07:00:31;18.10;99.90
25688;DHT22;17407;51.120;3.702;2023-07-31T07:02:57;18.30;99.90
25688;DHT22;17407;51.120;3.702;2023-07-31T07:05:23;18.30;99.90
25688;DHT22;17407;51.120;3.702;2023-07-31T07:07:49;18.40;99.90
25688;DHT22;17407;51.120;3.702;2023-07-31T07:10:16;18.30;99.90
25688;DHT22;17407;51.120;3.702;2023-07-31T07:12:42;18.20;99.90
25688;DHT22;17407;51.120;3.702;2023-07-31T07:15:08;18.30;99.90
25688;DHT22;17407;51.120;3.702;2023-07-31T07:17:34;18.30;99.90
25688;DHT22;17407;51.120;3.702;2023-07-31T07:20:00;18.30;99.90
25688;DHT22;17407;51.120;3.702;2023-07-31T07:22:26;18.20;99.90
25688;DHT22;17407;51.120;3.702;2023-07-31T07:24:53;18.40;99.90
25688;DHT22;17407;51.120;3.702;2023-07-31T07:27:18;18.30;99.90
25688;DHT22;17407;51.120;3.702;2023-07-31T07:29:45;18.50;99.90
25688;DHT22;17407;51.120;3.702;2023-07-31T07:32:11;18.50;99.90
25688;DHT22;17407;51.120;3.702;2023-07-31T07:34:37;18.60;99.90
25688;DHT22;17407;51.120;3.702;2023-07-31T07:37:03;18.70;99.90
25688;DHT22;17407;51.120;3.702;2023-07-31T07:39:28;18.60;99.90
25688;DHT22;17407;51.120;3.702;2023-07-31T07:41:54;18.60;99.90
25688;DHT22;17407;51.120;3.702;2023-07-31T07:44:20;18.70;99.90
25688;DHT22;17407;51.120;3.702;2023-07-31T07:46:45;18.60;99.90
25688;DHT22;17407;51.120;3.702;2023-07-31T07:49:11;18.60;99.90
25688;DHT22;17407;51.120;3.702;2023-07-31T07:51:37;18.50;99.90
25688;DHT22;17407;51.120;3.702;2023-07-31T07:54:02;18.60;99.90
25688;DHT22;17407;51.120;3.702;2023-07-31T07:56:28;18.70;99.90
25688;DHT22;17407;51.120;3.702;2023-07-31T07:58:54;18.80;99.90
25688;DHT22;17407;51.120;3.702;2023-07-31T08:01:20;18.80;99.90
25688;DHT22;17407;51.120;3.702;2023-07-31T08:03:47;18.90;99.90
25688;DHT22;17407;51.120;3.702;2023-07-31T08:06:13;18.90;99.90
25688;DHT22;17407;51.120;3.702;2023-07-31T08:08:39;18.90;99.90
25688;DHT22;17407;51.120;3.702;2023-07-31T08:11:04;19.10;99.90
25688;DHT22;17407;51.120;3.702;2023-07-31T08:13:30;19.10;99.90
25688;DHT22;17407;51.120;3.702;2023-07-31T08:15:56;19.00;99.90
25688;DHT22;17407;51.120;3.702;2023-07-31T08:18:21;19.10;99.90
25688;DHT22;17407;51.120;3.702;2023-07-31T08:20:47;19.10;99.90
25688;DHT22;17407;51.120;3.702;2023-07-31T08:23:13;19.40;99.90
25688;DHT22;17407;51.120;3.702;2023-07-31T08:25:39;19.30;99.90
25688;DHT22;17407;51.120;3.702;2023-07-31T08:28:05;19.40;99.90
25688;DHT22;17407;51.120;3.702;2023-07-31T08:30:31;19.40;99.90
25688;DHT22;17407;51.120;3.702;2023-07-31T08:32:57;19.40;99.90
25688;DHT22;17407;51.120;3.702;2023-07-31T08:35:24;19.40;99.90
25688;DHT22;17407;51.120;3.702;2023-07-31T08:37:49;19.50;99.90
25688;DHT22;17407;51.120;3.702;2023-07-31T08:40:15;19.60;99.90
25688;DHT22;17407;51.120;3.702;2023-07-31T08:42:49;19.70;99.90
25688;DHT22;17407;51.120;3.702;2023-07-31T08:45:19;19.70;99.90
25688;DHT22;17407;51.120;3.702;2023-07-31T08:47:49;19.80;99.90
25688;DHT22;17407;51.120;3.702;2023-07-31T08:50:18;19.70;99.90
25688;DHT22;17407;51.120;3.702;2023-07-31T08:52:45;19.90;99.90
25688;DHT22;17407;51.120;3.702;2023-07-31T08:55:11;20.20;99.90
25688;DHT22;17407;51.120;3.702;2023-07-31T08:57:38;20.40;99.90
25688;DHT22;17407;51.120;3.702;2023-07-31T09:00:05;20.40;99.90
25688;DHT22;17407;51.120;3.702;2023-07-31T09:03:06;20.60;99.90
25688;DHT22;17407;51.120;3.702;2023-07-31T09:05:36;20.60;99.90
25688;DHT22;17407;51.120;3.702;2023-07-31T09:08:02;20.50;99.90
25688;DHT22;17407;51.120;3.702;2023-07-31T09:10:29;20.50;99.90
25688;DHT22;17407;51.120;3.702;2023-07-31T09:12:55;20.50;99.90
25688;DHT22;17407;51.120;3.702;2023-07-31T09:15:21;20.40;99.90
25688;DHT22;17407;51.120;3.702;2023-07-31T09:18:01;20.40;99.90
25688;DHT22;17407;51.120;3.702;2023-07-31T09:20:28;20.30;99.90
25688;DHT22;17407;51.120;3.702;2023-07-31T09:22:55;20.30;99.90
25688;DHT22;17407;51.120;3.702;2023-07-31T09:25:22;20.30;99.90
25688;DHT22;17407;51.120;3.702;2023-07-31T09:30:14;20.40;99.90
25688;DHT22;17407;51.120;3.702;2023-07-31T09:32:40;20.50;99.90
25688;DHT22;17407;51.120;3.702;2023-07-31T09:37:52;20.20;99.90
25688;DHT22;17407;51.120;3.702;2023-07-31T09:40:35;20.10;99.90
25688;DHT22;17407;51.120;3.702;2023-07-31T09:43:04;20.20;99.90
25688;DHT22;17407;51.120;3.702;2023-07-31T09:45:34;20.30;99.90
25688;DHT22;17407;51.120;3.702;2023-07-31T09:48:02;20.40;99.90
25688;DHT22;17407;51.120;3.702;2023-07-31T09:50:29;20.20;99.90
25688;DHT22;17407;51.120;3.702;2023-07-31T09:52:55;20.30;99.90
25688;DHT22;17407;51.120;3.702;2023-07-31T09:55:20;20.20;99.90
25688;DHT22;17407;51.120;3.702;2023-07-31T09:57:47;20.10;99.90
25688;DHT22;17407;51.120;3.702;2023-07-31T10:00:16;20.10;99.90
25688;DHT22;17407;51.120;3.702;2023-07-31T10:02:45;20.30;99.90
25688;DHT22;17407;51.120;3.702;2023-07-31T10:05:13;20.30;99.90
25688;DHT22;17407;51.120;3.702;2023-07-31T10:07:52;20.30;99.90
25688;DHT22;17407;51.120;3.702;2023-07-31T10:10:21;20.30;99.90
25688;DHT22;17407;51.120;3.702;2023-07-31T10:12:48;20.40;99.90
25688;DHT22;17407;51.120;3.702;2023-07-31T10:15:15;20.60;99.90
25688;DHT22;17407;51.120;3.702;2023-07-31T10:17:40;20.70;99.90
25688;DHT22;17407;51.120;3.702;2023-07-31T10:20:07;20.60;99.90
25688;DHT22;17407;51.120;3.702;2023-07-31T10:22:34;20.60;99.90
25688;DHT22;17407;51.120;3.702;2023-07-31T10:25:00;20.70;99.90
25688;DHT22;17407;51.120;3.702;2023-07-31T10:27:26;20.80;99.90
25688;DHT22;17407;51.120;3.702;2023-07-31T10:29:57;20.80;99.90
25688;DHT22;17407;51.120;3.702;2023-07-31T10:32:24;20.50;99.90
25688;DHT22;17407;51.120;3.702;2023-07-31T10:34:51;20.60;99.90
25688;DHT22;17407;51.120;3.702;2023-07-31T10:42:31;20.80;99.90
25688;DHT22;17407;51.120;3.702;2023-07-31T10:45:03;21.00;99.90
25688;DHT22;17407;51.120;3.702;2023-07-31T10:47:28;21.00;99.90
25688;DHT22;17407;51.120;3.702;2023-07-31T10:50:20;21.10;99.90
25688;DHT22;17407;51.120;3.702;2023-07-31T10:52:48;21.10;99.90
25688;DHT22;17407;51.120;3.702;2023-07-31T10:55:41;21.10;99.90
25688;DHT22;17407;51.120;3.702;2023-07-31T10:58:12;21.10;99.90
25688;DHT22;17407;51.120;3.702;2023-07-31T11:00:43;21.10;99.90
25688;DHT22;17407;51.120;3.702;2023-07-31T11:03:10;21.10;99.90
25688;DHT22;17407;51.120;3.702;2023-07-31T11:08:12;21.20;99.90
25688;DHT22;17407;51.120;3.702;2023-07-31T11:10:38;21.10;99.90
25688;DHT22;17407;51.120;3.702;2023-07-31T11:13:04;21.00;99.90
25688;DHT22;17407;51.120;3.702;2023-07-31T11:15:31;21.10;99.90
25688;DHT22;17407;51.120;3.702;2023-07-31T11:17:56;21.10;99.90
25688;DHT22;17407;51.120;3.702;2023-07-31T11:20:27;21.20;99.90
25688;DHT22;17407;51.120;3.702;2023-07-31T11:22:52;21.30;99.90
25688;DHT22;17407;51.120;3.702;2023-07-31T11:25:18;21.40;99.90
25688;DHT22;17407;51.120;3.702;2023-07-31T11:27:45;21.40;99.90
25688;DHT22;17407;51.120;3.702;2023-07-31T11:30:11;21.30;99.90
25688;DHT22;17407;51.120;3.702;2023-07-31T11:32:38;21.20;99.90
25688;DHT22;17407;51.120;3.702;2023-07-31T11:35:04;21.20;99.90
25688;DHT22;17407;51.120;3.702;2023-07-31T11:37:44;21.10;99.90
25688;DHT22;17407;51.120;3.702;2023-07-31T11:40:11;21.10;99.90
25688;DHT22;17407;51.120;3.702;2023-07-31T11:42:37;21.10;99.90
25688;DHT22;17407;51.120;3.702;2023-07-31T11:45:04;21.10;99.90
25688;DHT22;17407;51.120;3.702;2023-07-31T11:47:32;21.20;99.90
25688;DHT22;17407;51.120;3.702;2023-07-31T11:50:00;21.20;99.90
25688;DHT22;17407;51.120;3.702;2023-07-31T11:52:26;21.30;99.90
25688;DHT22;17407;51.120;3.702;2023-07-31T11:54:52;21.50;99.90
25688;DHT22;17407;51.120;3.702;2023-07-31T11:57:19;21.60;99.90
25688;DHT22;17407;51.120;3.702;2023-07-31T11:59:45;21.70;99.90
25688;DHT22;17407;51.120;3.702;2023-07-31T12:02:11;21.70;99.90
25688;DHT22;17407;51.120;3.702;2023-07-31T12:04:37;21.70;99.90
25688;DHT22;17407;51.120;3.702;2023-07-31T12:07:04;21.80;99.90
25688;DHT22;17407;51.120;3.702;2023-07-31T12:09:29;21.80;99.90
25688;DHT22;17407;51.120;3.702;2023-07-31T12:11:55;21.80;99.90
25688;DHT22;17407;51.120;3.702;2023-07-31T12:14:25;21.80;99.90
25688;DHT22;17407;51.120;3.702;2023-07-31T12:16:58;21.80;99.90
25688;DHT22;17407;51.120;3.702;2023-07-31T12:19:25;21.90;99.90
25688;DHT22;17407;51.120;3.702;2023-07-31T12:21:58;21.90;99.90
25688;DHT22;17407;51.120;3.702;2023-07-31T12:24:26;21.90;99.90
25688;DHT22;17407;51.120;3.702;2023-07-31T12:26:52;21.80;99.90
25688;DHT22;17407;51.120;3.702;2023-07-31T12:29:18;21.80;99.90
25688;DHT22;17407;51.120;3.702;2023-07-31T12:31:43;21.70;99.90
25688;DHT22;17407;51.120;3.702;2023-07-31T12:34:17;21.50;99.90
25688;DHT22;17407;51.120;3.702;2023-07-31T12:36:43;21.30;99.90
25688;DHT22;17407;51.120;3.702;2023-07-31T12:39:10;21.00;99.90
25688;DHT22;17407;51.120;3.702;2023-07-31T12:41:35;20.70;99.90
25688;DHT22;17407;51.120;3.702;2023-07-31T12:44:01;20.70;99.90
25688;DHT22;17407;51.120;3.702;2023-07-31T12:46:28;20.60;99.90
25688;DHT22;17407;51.120;3.702;2023-07-31T12:48:54;20.50;99.90
25688;DHT22;17407;51.120;3.702;2023-07-31T12:51:20;20.40;99.90
25688;DHT22;17407;51.120;3.702;2023-07-31T12:53:46;20.30;99.90
25688;DHT22;17407;51.120;3.702;2023-07-31T12:56:12;20.20;99.90
25688;DHT22;17407;51.120;3.702;2023-07-31T12:58:37;20.30;99.90
25688;DHT22;17407;51.120;3.702;2023-07-31T13:01:03;20.20;99.90
25688;DHT22;17407;51.120;3.702;2023-07-31T13:03:29;20.00;99.90
25688;DHT22;17407;51.120;3.702;2023-07-31T13:05:55;20.10;99.90
25688;DHT22;17407;51.120;3.702;2023-07-31T13:08:20;20.10;99.90
25688;DHT22;17407;51.120;3.702;2023-07-31T13:10:46;20.10;99.90
25688;DHT22;17407;51.120;3.702;2023-07-31T13:13:12;20.00;99.90
25688;DHT22;17407;51.120;3.702;2023-07-31T13:15:37;19.90;99.90
25688;DHT22;17407;51.120;3.702;2023-07-31T13:18:03;19.80;99.90
25688;DHT22;17407;51.120;3.702;2023-07-31T13:20:29;19.70;99.90
25688;DHT22;17407;51.120;3.702;2023-07-31T13:22:54;19.60;99.90
25688;DHT22;17407;51.120;3.702;2023-07-31T13:25:20;19.70;99.90
25688;DHT22;17407;51.120;3.702;2023-07-31T13:27:46;19.50;99.90
25688;DHT22;17407;51.120;3.702;2023-07-31T13:30:11;19.50;99.90
25688;DHT22;17407;51.120;3.702;2023-07-31T13:32:37;19.50;99.90
25688;DHT22;17407;51.120;3.702;2023-07-31T13:35:06;19.50;99.90
25688;DHT22;17407;51.120;3.702;2023-07-31T13:37:32;19.40;99.90
25688;DHT22;17407;51.120;3.702;2023-07-31T13:39:58;19.30;99.90
25688;DHT22;17407;51.120;3.702;2023-07-31T13:42:24;19.30;99.90
25688;DHT22;17407;51.120;3.702;2023-07-31T13:44:50;19.30;99.90
25688;DHT22;17407;51.120;3.702;2023-07-31T13:47:15;19.40;99.90
25688;DHT22;17407;51.120;3.702;2023-07-31T13:49:41;19.40;99.90
25688;DHT22;17407;51.120;3.702;2023-07-31T13:52:08;19.30;99.90
25688;DHT22;17407;51.120;3.702;2023-07-31T13:54:34;19.30;99.90
25688;DHT22;17407;51.120;3.702;2023-07-31T13:57:00;19.40;99.90
25688;DHT22;17407;51.120;3.702;2023-07-31T13:59:26;19.40;99.90
25688;DHT22;17407;51.120;3.702;2023-07-31T14:01:52;19.40;99.90
25688;DHT22;17407;51.120;3.702;2023-07-31T14:04:17;19.50;99.90
25688;DHT22;17407;51.120;3.702;2023-07-31T14:06:43;19.50;99.90
25688;DHT22;17407;51.120;3.702;2023-07-31T14:09:09;19.60;99.90
25688;DHT22;17407;51.120;3.702;2023-07-31T14:11:35;19.70;99.90
25688;DHT22;17407;51.120;3.702;2023-07-31T14:14:01;19.60;99.90
25688;DHT22;17407;51.120;3.702;2023-07-31T14:16:30;19.40;99.90
25688;DHT22;17407;51.120;3.702;2023-07-31T14:18:55;19.50;99.90
25688;DHT22;17407;51.120;3.702;2023-07-31T14:21:21;19.60;99.90
25688;DHT22;17407;51.120;3.702;2023-07-31T14:23:47;19.50;99.90
25688;DHT22;17407;51.120;3.702;2023-07-31T14:26:12;19.50;99.90
25688;DHT22;17407;51.120;3.702;2023-07-31T14:28:38;19.50;99.90
25688;DHT22;17407;51.120;3.702;2023-07-31T14:31:04;19.50;99.90
25688;DHT22;17407;51.120;3.702;2023-07-31T14:33:30;19.40;99.90
25688;DHT22;17407;51.120;3.702;2023-07-31T14:35:55;19.40;99.90
25688;DHT22;17407;51.120;3.702;2023-07-31T14:38:21;19.50;99.90
25688;DHT22;17407;51.120;3.702;2023-07-31T14:40:47;19.50;99.90
25688;DHT22;17407;51.120;3.702;2023-07-31T14:43:12;19.50;99.90
25688;DHT22;17407;51.120;3.702;2023-07-31T14:45:38;19.50;99.90
25688;DHT22;17407;51.120;3.702;2023-07-31T14:48:04;19.50;99.90
25688;DHT22;17407;51.120;3.702;2023-07-31T14:50:30;19.40;99.90
25688;DHT22;17407;51.120;3.702;2023-07-31T14:52:55;19.40;99.90
25688;DHT22;17407;51.120;3.702;2023-07-31T14:55:21;19.50;99.90
25688;DHT22;17407;51.120;3.702;2023-07-31T14:57:47;19.50;99.90
25688;DHT22;17407;51.120;3.702;2023-07-31T15:00:13;19.60;99.90
25688;DHT22;17407;51.120;3.702;2023-07-31T15:02:38;19.70;99.90
25688;DHT22;17407;51.120;3.702;2023-07-31T15:05:05;19.70;99.90
25688;DHT22;17407;51.120;3.702;2023-07-31T15:07:31;19.70;99.90
25688;DHT22;17407;51.120;3.702;2023-07-31T15:09:57;19.60;99.90
25688;DHT22;17407;51.120;3.702;2023-07-31T15:12:23;19.60;99.90
25688;DHT22;17407;51.120;3.702;2023-07-31T15:14:49;19.60;99.90
25688;DHT22;17407;51.120;3.702;2023-07-31T15:17:15;19.60;99.90
25688;DHT22;17407;51.120;3.702;2023-07-31T15:19:41;19.60;99.90
25688;DHT22;17407;51.120;3.702;2023-07-31T15:22:06;19.60;99.90
25688;DHT22;17407;51.120;3.702;2023-07-31T15:24:32;19.50;99.90
25688;DHT22;17407;51.120;3.702;2023-07-31T15:26:58;19.40;99.90
25688;DHT22;17407;51.120;3.702;2023-07-31T15:29:24;19.30;99.90
25688;DHT22;17407;51.120;3.702;2023-07-31T15:31:49;19.20;99.90
25688;DHT22;17407;51.120;3.702;2023-07-31T15:34:15;19.30;99.90
25688;DHT22;17407;51.120;3.702;2023-07-31T15:36:42;19.30;99.90
25688;DHT22;17407;51.120;3.702;2023-07-31T15:39:08;19.40;99.90
25688;DHT22;17407;51.120;3.702;2023-07-31T15:41:36;19.40;99.90